Details From LEAL - Alicante
To ESGG - Goteborg Landvetter
Flight Number -
Tags decoded
Created
Modified
Stats Distance 1,338 nm / 2,478 km
Max Altitude 0 ft / 0 m
Waypoints 22
Social Downloads 1
Likes 0
Share VATSIM

Download

Looking for another format? Having issues loading an existing format? Contact us
Advertisement - Login to hide

Notes

Requested: LEAL MITOS ARGOR EBROX LATRO UN861 FISTO UY156 ADABI UN858 VANAD UN874 VEKIN UN873 HELEN UZ708 KUGAL Z708 N873 LOBBI ESGG Unmatched points: UN874 Z708 N873

Route

LEAL MITOS ARGOR EBROX LATRO UN861 FISTO UY156 ADABI UN858 VANAD VEKIN UN873 HELEN UZ708 KUGAL LOBBI ESGG

ID Type Via Altitude Latitude Longitude Leg Dist Tot Dist Heading (true) Name
O LEAL APT - 0 ft / 0 m 38.28217˚ -0.55816˚ - 0 nm - Alicante
MITOS FIX - 0 ft / 0 m 38.44945˚ -0.01372˚ 27 nm 27 nm 68° / 69° -
ARGOR FIX - 0 ft / 0 m 39.53861˚ 0.29861˚ 67 nm 94 nm 12° / 13° -
EBROX FIX - 0 ft / 0 m 40.70873˚ 1.23178˚ 82 nm 176 nm 31° / 32° -
LATRO FIX - 0 ft / 0 m 41.77168˚ 1.61830˚ 66 nm 243 nm 15° / 15° -
OKABI FIX UN861 (AWY-HI) 0 ft / 0 m 42.61611˚ 1.48361˚ 51 nm 294 nm 353° / 353° -
TOU VOR UN861 (AWY-HI) 0 ft / 0 m 43.68083˚ 1.30981˚ 64 nm 358 nm 353° / 353° TOULOUSE BLAGNAC VOR-DME
FISTO FIX UN861 (AWY-HI) 0 ft / 0 m 44.46139˚ 1.22722˚ 47 nm 405 nm 356° / 356° -
PERIG FIX UY156 (AWY-HI) 0 ft / 0 m 45.11722˚ 0.96944˚ 40 nm 446 nm 345° / 344° -
FOUCO FIX UY156 (AWY-HI) 0 ft / 0 m 45.75472˚ 0.48056˚ 43 nm 489 nm 332° / 332° -
ADABI FIX UY156 (AWY-HI) 0 ft / 0 m 46.56111˚ 0.53083˚ 48 nm 538 nm 2° / 2° -
BOKNO FIX UN858 (AWY-HI) 0 ft / 0 m 47.04694˚ 0.69167˚ 29 nm 568 nm 13° / 13° -
DEVRO FIX UN858 (AWY-HI) 0 ft / 0 m 47.49556˚ 0.73861˚ 27 nm 595 nm 4° / 4° -
VANAD FIX UN858 (AWY-HI) 0 ft / 0 m 47.83722˚ 0.90722˚ 21 nm 616 nm 18° / 18° -
VEKIN FIX - 0 ft / 0 m 50.40417˚ 3.27500˚ 180 nm 796 nm 30° / 32° -
ADUTO FIX UN873 (AWY-HI) 0 ft / 0 m 50.51500˚ 3.36167˚ 7 nm 804 nm 26° / 26° -
FERDI FIX UN873 (AWY-HI) 0 ft / 0 m 50.91264˚ 3.63696˚ 26 nm 830 nm 24° / 24° -
HELEN FIX UN873 (AWY-HI) 0 ft / 0 m 51.23531˚ 3.86971˚ 21 nm 851 nm 24° / 24° -
AGISU FIX UZ708 (AWY-HI) 0 ft / 0 m 53.88167˚ 6.50000˚ 185 nm 1037 nm 30° / 32° -
KUGAL FIX UZ708 (AWY-HI) 0 ft / 0 m 55.00000˚ 7.62056˚ 77 nm 1115 nm 30° / 31° -
LOBBI FIX - 0 ft / 0 m 57.31806˚ 11.49805˚ 190 nm 1305 nm 41° / 45° -
O ESGG APT - 0 ft / 0 m 57.66284˚ 12.27982˚ 32 nm 1337 nm 50° / 51° Goteborg Landvetter

Altitude Profile

Advertisement - Login to hide

Weather


0- 5 10 15 20 25 30 35+ Temperature / ° C

Clouds and Precipitation
Forecast for 2018-05-24 12:00 UTC. Updated an hour ago

Ground ~20,000 ft ~40,000 ft Winds

LEAL

Details ICAO LEAL (ALC)
Name Alicante
Region Spain
Timezone Europe/Madrid (UTC+2.0)
Stats Elevation 141 ft / 43 m (AMSL)
Location 38.282169° -0.558157°
Runways 1
Magnetic Variation 0.232° E

METAR

LEAL 241230Z 07016KT 040V100 CAVOK 25/13 Q1014 NOSIG

Decode

TAF

TAF TAF LEAL 241100Z 2412/2512 07018KT 9999 FEW030 TX26/2412Z TN18/2506Z TEMPO 2412/2418 07022G35KT BECMG 2421/2424 34005KT

Decode

Departure Runways

ID Width Length Bearing (true) Bearing (mag) Surface Threshold Offset Overrun Length
10 148 ft / 45 m 9,799 ft / 2,987 m 100.07° 99.84° Asphalt 0 ft / 0 m 164 ft / 50 m
28 148 ft / 45 m 9,799 ft / 2,987 m 280.09° 279.86° Asphalt 0 ft / 0 m 197 ft / 60 m

ESGG

Details ICAO ESGG (GOT)
Name Goteborg Landvetter
Region Sweden
Timezone Europe/Stockholm (UTC+2.0)
Stats Elevation 506 ft / 154 m (AMSL)
Location 57.662836° 12.279819°
Runways 1
Magnetic Variation 3.784° E

METAR

ESGG 241220Z 13005KT 070V170 CAVOK 25/07 Q1028

Decode

TAF

TAF ESGG 241130Z 2412/2512 26006KT CAVOK= TAF ESMS 241105Z 2412/2512 10010KT CAVOK

Decode

Destination Runways

ID Width Length Bearing (true) Bearing (mag) Surface Threshold Offset Overrun Length
03 148 ft / 45 m 10,804 ft / 3,293 m 25.94° 22.16° Asphalt 0 ft / 0 m 207 ft / 63 m
21 148 ft / 45 m 10,804 ft / 3,293 m 205.96° 202.18° Asphalt 0 ft / 0 m 207 ft / 63 m

Approach Navaids

Runway Type Ident Frequency Range Bearing (true) Bearing (mag) Slope Elevation
03 Localiser SSG 110.30 MHz 18 nm / 33 km 25.98° 22.19° - 506 ft / 154 m (AMSL)
03 Glidescope SSG 110.30 MHz 10 nm / 19 km 25.95° 22.17° 3.00° 506 ft / 154 m (AMSL)
21 Localiser NGG 108.50 MHz 18 nm / 33 km 205.92° 202.14° - 506 ft / 154 m (AMSL)
21 Glidescope NGG 108.50 MHz 10 nm / 19 km 205.95° 202.17° 3.00° 506 ft / 154 m (AMSL)

Popular Alternatives